createdAt,value
2017-09-18T00:01:03.492Z,10.80
2017-09-18T00:03:29.652Z,10.70
2017-09-18T00:05:55.876Z,10.70
2017-09-18T00:08:22.842Z,10.70
2017-09-18T00:10:49.019Z,10.70
2017-09-18T00:13:15.194Z,10.70
2017-09-18T00:15:41.375Z,10.70
2017-09-18T00:18:07.923Z,10.70
2017-09-18T00:20:34.343Z,10.80
2017-09-18T00:23:00.584Z,10.60
2017-09-18T00:25:26.726Z,10.60
2017-09-18T00:27:52.910Z,10.60
2017-09-18T00:30:19.079Z,10.70
2017-09-18T00:32:45.246Z,10.80
2017-09-18T00:35:11.473Z,10.70
2017-09-18T00:37:38.373Z,10.70
2017-09-18T00:40:04.938Z,10.70
2017-09-18T00:42:31.543Z,10.70
2017-09-18T00:44:57.738Z,10.70
2017-09-18T00:47:23.914Z,10.70
2017-09-18T00:49:51.046Z,10.70
2017-09-18T00:52:17.293Z,10.60
2017-09-18T00:54:44.280Z,10.50
2017-09-18T00:57:10.832Z,10.40
2017-09-18T00:59:37.046Z,10.50
2017-09-18T01:02:03.279Z,10.40
2017-09-18T01:04:30.206Z,10.40
2017-09-18T01:06:56.531Z,10.40
2017-09-18T01:09:22.725Z,10.40
2017-09-18T01:11:49.330Z,10.40
2017-09-18T01:14:15.591Z,10.40
2017-09-18T01:16:42.103Z,10.50
2017-09-18T01:19:08.469Z,10.50
2017-09-18T01:21:34.651Z,10.40
2017-09-18T01:24:00.835Z,10.40
2017-09-18T01:26:27.395Z,10.40
2017-09-18T01:28:54.534Z,10.40
2017-09-18T01:31:20.712Z,10.30
2017-09-18T01:33:46.875Z,10.20
2017-09-18T01:36:13.062Z,10.10
2017-09-18T01:38:39.234Z,10.20
2017-09-18T01:41:05.431Z,10.30
2017-09-18T01:43:31.601Z,10.30
2017-09-18T01:45:57.788Z,10.30
2017-09-18T01:48:23.975Z,10.30
2017-09-18T01:50:50.928Z,10.10
2017-09-18T01:53:17.087Z,10.00
2017-09-18T01:55:43.596Z,9.90
2017-09-18T01:58:09.811Z,9.90
2017-09-18T02:00:35.994Z,10.00
2017-09-18T02:03:03.855Z,10.10
2017-09-18T02:05:30.035Z,10.00
2017-09-18T02:07:56.205Z,10.10
2017-09-18T02:10:22.394Z,10.50
2017-09-18T02:12:48.563Z,9.80
2017-09-18T02:15:14.723Z,9.80
2017-09-18T02:17:41.653Z,9.70
2017-09-18T02:20:08.562Z,9.70
2017-09-18T02:22:34.787Z,9.70
2017-09-18T02:25:01.326Z,9.60
2017-09-18T02:27:27.541Z,9.50
2017-09-18T02:29:53.698Z,9.50
2017-09-18T02:32:21.064Z,9.50
2017-09-18T02:34:48.310Z,9.50
2017-09-18T02:37:15.235Z,9.60
2017-09-18T02:39:42.542Z,9.70
2017-09-18T02:42:09.107Z,9.80
2017-09-18T02:44:35.298Z,9.90
2017-09-18T02:47:01.454Z,10.00
2017-09-18T02:49:27.886Z,10.00
2017-09-18T02:51:54.038Z,10.10
2017-09-18T02:54:20.191Z,9.90
2017-09-18T02:56:46.365Z,9.80
2017-09-18T02:59:12.545Z,9.80
2017-09-18T03:01:39.456Z,9.80
2017-09-18T03:04:05.654Z,9.80
2017-09-18T03:06:31.838Z,9.80
2017-09-18T03:08:57.967Z,9.90
2017-09-18T03:11:24.134Z,9.90
2017-09-18T03:13:50.291Z,9.90
2017-09-18T03:16:16.852Z,9.80
2017-09-18T03:18:43.013Z,9.90
2017-09-18T03:21:09.202Z,10.00
2017-09-18T03:23:35.374Z,9.90
2017-09-18T03:26:01.598Z,9.90
2017-09-18T03:28:27.778Z,9.90
2017-09-18T03:30:53.961Z,10.00
2017-09-18T03:33:20.122Z,9.90
2017-09-18T03:35:47.488Z,9.80
2017-09-18T03:38:13.894Z,9.70
2017-09-18T03:40:40.044Z,9.60
2017-09-18T03:43:06.974Z,9.70
2017-09-18T03:45:33.177Z,9.60
2017-09-18T03:47:59.353Z,9.60
2017-09-18T03:50:25.511Z,9.60
2017-09-18T03:52:51.702Z,9.70
2017-09-18T03:55:17.913Z,9.70
2017-09-18T03:57:44.062Z,9.60
2017-09-18T04:00:11.046Z,9.50
2017-09-18T04:02:37.214Z,9.50
2017-09-18T04:05:03.442Z,9.40
2017-09-18T04:07:29.643Z,9.40
2017-09-18T04:09:55.834Z,9.30
2017-09-18T04:12:22.026Z,9.30
2017-09-18T04:14:48.230Z,9.20
2017-09-18T04:17:14.377Z,9.20
2017-09-18T04:19:40.556Z,9.40
2017-09-18T04:22:06.704Z,9.50
2017-09-18T04:24:32.872Z,9.50
2017-09-18T04:26:59.757Z,9.50
2017-09-18T04:29:25.931Z,9.50
2017-09-18T04:31:52.103Z,9.40
2017-09-18T04:34:19.177Z,9.30
2017-09-18T04:36:45.332Z,9.30
2017-09-18T04:39:11.482Z,9.20
2017-09-18T04:41:37.659Z,9.10
2017-09-18T04:44:03.831Z,9.00
2017-09-18T04:46:30.000Z,9.00
2017-09-18T04:48:56.178Z,9.00
2017-09-18T04:51:22.314Z,8.90
2017-09-18T04:53:48.474Z,8.90
2017-09-18T04:56:14.661Z,8.70
2017-09-18T04:58:40.821Z,8.80
2017-09-18T05:01:06.988Z,8.90
2017-09-18T05:03:33.156Z,9.00
2017-09-18T05:06:00.177Z,9.00
2017-09-18T05:08:26.364Z,9.00
2017-09-18T05:10:52.532Z,9.10
2017-09-18T05:13:19.061Z,9.20
2017-09-18T05:15:45.247Z,9.20
2017-09-18T05:18:11.445Z,9.30
2017-09-18T05:20:37.645Z,9.40
2017-09-18T05:23:03.823Z,9.40
2017-09-18T05:25:30.023Z,9.40
2017-09-18T05:27:56.176Z,9.50
2017-09-18T05:30:22.394Z,9.50
2017-09-18T05:32:48.582Z,9.60
2017-09-18T05:35:15.184Z,9.50
2017-09-18T05:37:41.350Z,9.50
2017-09-18T05:40:07.513Z,9.50
2017-09-18T05:42:33.675Z,9.60
2017-09-18T05:44:59.839Z,9.60
2017-09-18T05:47:26.018Z,9.70
2017-09-18T05:49:52.230Z,9.80
2017-09-18T05:52:18.417Z,9.70
2017-09-18T05:54:44.964Z,9.90
2017-09-18T05:57:11.100Z,9.90
2017-09-18T05:59:37.274Z,9.80
2017-09-18T06:02:04.595Z,10.00
2017-09-18T06:04:31.106Z,10.00
2017-09-18T06:06:57.253Z,10.10
2017-09-18T06:09:23.442Z,10.20
2017-09-18T06:11:49.670Z,10.20
2017-09-18T06:14:15.818Z,10.10
2017-09-18T06:16:42.375Z,10.00
2017-09-18T06:19:08.583Z,10.10
2017-09-18T06:21:34.788Z,10.10
2017-09-18T06:24:00.975Z,10.10
2017-09-18T06:26:27.164Z,10.20
2017-09-18T06:28:54.054Z,10.30
2017-09-18T06:31:20.226Z,10.20
2017-09-18T06:33:46.375Z,10.20
2017-09-18T06:36:12.572Z,10.30
2017-09-18T06:38:38.756Z,10.30
2017-09-18T06:41:04.914Z,10.30
2017-09-18T06:43:31.845Z,10.30
2017-09-18T06:45:58.052Z,10.20
2017-09-18T06:48:25.006Z,10.30
2017-09-18T06:50:51.161Z,10.30
2017-09-18T06:53:17.414Z,10.30
2017-09-18T06:55:43.999Z,10.30
2017-09-18T06:58:10.223Z,10.40
2017-09-18T07:00:36.503Z,10.40
2017-09-18T07:03:03.059Z,10.40
2017-09-18T07:05:29.250Z,10.50
2017-09-18T07:07:55.454Z,10.60
2017-09-18T07:10:21.685Z,10.70
2017-09-18T07:12:48.614Z,10.90
2017-09-18T07:15:14.802Z,10.90
2017-09-18T07:17:40.995Z,8.80
2017-09-18T07:20:07.199Z,13.00
2017-09-18T07:22:33.493Z,10.90
2017-09-18T07:24:59.673Z,11.10
2017-09-18T07:27:25.811Z,11.20
2017-09-18T07:29:52.003Z,11.20
2017-09-18T07:32:18.213Z,11.20
2017-09-18T07:34:44.391Z,11.20
2017-09-18T07:37:10.571Z,11.20
2017-09-18T07:39:36.735Z,11.30
2017-09-18T07:42:02.923Z,11.30
2017-09-18T07:44:29.195Z,11.40
2017-09-18T07:46:55.367Z,11.60
2017-09-18T07:49:21.549Z,11.70
2017-09-18T07:51:47.733Z,11.90
2017-09-18T07:54:13.922Z,11.90
2017-09-18T07:56:40.125Z,11.90
2017-09-18T07:59:06.316Z,12.20
2017-09-18T08:01:32.857Z,12.40
2017-09-18T08:03:59.042Z,12.60
2017-09-18T08:06:25.202Z,12.60
2017-09-18T08:08:51.387Z,12.90
2017-09-18T08:11:17.584Z,13.20
2017-09-18T08:13:43.725Z,13.70
2017-09-18T08:16:09.915Z,14.30
2017-09-18T08:18:36.059Z,14.50
2017-09-18T08:21:03.014Z,14.90
2017-09-18T08:23:29.558Z,15.20
2017-09-18T08:25:56.473Z,15.00
2017-09-18T08:28:22.634Z,14.90
2017-09-18T08:30:48.815Z,14.70
2017-09-18T08:33:14.955Z,14.50
2017-09-18T08:35:41.103Z,14.40
2017-09-18T08:38:07.310Z,14.80
2017-09-18T08:40:33.498Z,15.10
2017-09-18T08:42:59.648Z,15.10
2017-09-18T08:45:25.828Z,15.00
2017-09-18T08:47:52.031Z,14.90
2017-09-18T08:50:18.213Z,14.70
2017-09-18T08:52:44.375Z,15.00
2017-09-18T08:55:11.284Z,15.40
2017-09-18T08:57:37.434Z,16.10
2017-09-18T09:00:03.715Z,16.70
2017-09-18T09:02:29.897Z,17.20
2017-09-18T09:04:56.086Z,17.50
2017-09-18T09:07:22.287Z,17.80
2017-09-18T09:09:48.467Z,18.20
2017-09-18T09:12:14.628Z,18.40
2017-09-18T09:14:40.843Z,18.50
2017-09-18T09:17:07.383Z,18.20
2017-09-18T09:19:33.633Z,18.30
2017-09-18T09:22:00.604Z,18.60
2017-09-18T09:24:26.794Z,18.10
2017-09-18T09:26:53.005Z,17.90
2017-09-18T09:29:19.227Z,18.00
2017-09-18T09:31:45.411Z,17.90
2017-09-18T09:34:11.580Z,17.70
2017-09-18T09:36:37.735Z,17.50
2017-09-18T09:39:03.933Z,17.40
2017-09-18T09:41:30.090Z,17.20
2017-09-18T09:43:56.254Z,16.80
2017-09-18T09:46:22.455Z,16.70
2017-09-18T09:48:49.377Z,16.50
2017-09-18T09:51:15.907Z,16.50
2017-09-18T09:53:42.077Z,16.20
2017-09-18T09:56:08.260Z,16.20
2017-09-18T09:58:34.454Z,16.10
2017-09-18T10:01:00.607Z,16.20
2017-09-18T10:03:26.779Z,16.50
2017-09-18T10:05:52.949Z,16.80
2017-09-18T10:08:19.167Z,16.90
2017-09-18T10:10:45.288Z,17.50
2017-09-18T10:13:11.479Z,17.50
2017-09-18T10:15:38.029Z,17.30
2017-09-18T10:18:04.211Z,16.80
2017-09-18T10:20:30.395Z,16.80
2017-09-18T10:22:56.587Z,17.10
2017-09-18T10:25:22.796Z,18.20
2017-09-18T10:27:48.959Z,19.00
2017-09-18T10:30:15.173Z,19.90
2017-09-18T10:32:41.339Z,20.60
2017-09-18T10:35:07.532Z,21.10
2017-09-18T10:37:33.711Z,21.00
2017-09-18T10:39:59.941Z,21.00
2017-09-18T10:42:26.893Z,20.30
2017-09-18T10:44:53.070Z,20.00
2017-09-18T10:47:19.247Z,19.60
2017-09-18T10:49:45.414Z,19.30
2017-09-18T10:52:11.561Z,19.80
2017-09-18T10:54:37.739Z,20.40
2017-09-18T10:57:03.918Z,21.10
2017-09-18T10:59:30.084Z,21.10
2017-09-18T11:01:56.314Z,21.50
2017-09-18T11:04:22.499Z,21.40
2017-09-18T11:06:49.406Z,21.40
2017-09-18T11:09:15.926Z,20.50
2017-09-18T11:11:42.104Z,20.30
2017-09-18T11:14:08.322Z,21.20
2017-09-18T11:16:34.485Z,22.10
2017-09-18T11:19:00.730Z,22.50
2017-09-18T11:21:26.947Z,23.40
2017-09-18T11:23:53.199Z,23.90
2017-09-18T11:26:19.353Z,24.30
2017-09-18T11:28:45.528Z,24.40
2017-09-18T11:31:11.695Z,23.60
2017-09-18T11:33:38.590Z,23.10
2017-09-18T11:36:04.770Z,23.10
2017-09-18T11:38:30.956Z,23.60
2017-09-18T11:40:57.130Z,24.00
2017-09-18T11:43:23.327Z,23.20
2017-09-18T11:45:49.499Z,22.20
2017-09-18T11:48:15.721Z,21.80
2017-09-18T11:50:42.258Z,21.30
2017-09-18T11:53:08.595Z,21.00
2017-09-18T11:55:34.746Z,20.70
2017-09-18T11:58:00.934Z,20.70
2017-09-18T12:00:27.102Z,21.20
2017-09-18T12:02:53.327Z,21.80
2017-09-18T12:05:19.507Z,22.00
2017-09-18T12:07:45.707Z,23.10
2017-09-18T12:10:11.922Z,24.10
2017-09-18T12:12:38.806Z,23.40
2017-09-18T12:15:05.031Z,23.90
2017-09-18T12:17:31.197Z,25.10
2017-09-18T12:19:57.364Z,25.10
2017-09-18T12:22:23.561Z,23.70
2017-09-18T12:24:49.763Z,22.20
2017-09-18T12:27:15.967Z,21.90
2017-09-18T12:29:42.203Z,21.40
2017-09-18T12:32:08.415Z,21.30
2017-09-18T12:34:34.563Z,20.40
2017-09-18T12:37:00.711Z,21.50
2017-09-18T12:39:26.878Z,23.00
2017-09-18T12:41:53.051Z,23.60
2017-09-18T12:44:19.263Z,23.20
2017-09-18T12:46:45.424Z,22.40
2017-09-18T12:49:11.742Z,21.50
2017-09-18T12:51:37.926Z,21.40
2017-09-18T12:54:04.094Z,21.60
2017-09-18T12:56:30.330Z,22.50
2017-09-18T12:58:56.531Z,22.70
2017-09-18T13:01:23.259Z,23.10
2017-09-18T13:03:49.454Z,23.60
2017-09-18T13:06:15.640Z,23.70
2017-09-18T13:08:42.714Z,23.80
2017-09-18T13:11:09.228Z,24.00
2017-09-18T13:13:35.428Z,23.50
2017-09-18T13:16:01.609Z,23.80
2017-09-18T13:18:27.816Z,23.70
2017-09-18T13:20:54.046Z,23.70
2017-09-18T13:23:21.219Z,23.50
2017-09-18T13:25:47.366Z,23.50
2017-09-18T13:28:13.618Z,23.40
2017-09-18T13:30:39.809Z,22.60
2017-09-18T13:33:06.056Z,22.70
2017-09-18T13:35:33.437Z,22.70
2017-09-18T13:37:59.752Z,23.00
2017-09-18T13:40:25.997Z,23.10
2017-09-18T13:42:52.138Z,23.00
2017-09-18T13:45:18.311Z,22.70
2017-09-18T13:47:44.488Z,22.60
2017-09-18T13:50:11.656Z,22.80
2017-09-18T13:52:37.873Z,22.80
2017-09-18T13:55:04.050Z,21.80
2017-09-18T13:57:30.185Z,21.10
2017-09-18T13:59:56.382Z,21.00
2017-09-18T14:02:23.322Z,21.50
2017-09-18T14:04:50.273Z,21.90
2017-09-18T14:07:17.324Z,22.20
2017-09-18T14:09:43.514Z,22.10
2017-09-18T14:12:09.716Z,21.40
2017-09-18T14:14:35.894Z,20.40
2017-09-18T14:17:02.890Z,19.60
2017-09-18T14:19:29.111Z,19.40
2017-09-18T14:21:55.326Z,19.30
2017-09-18T14:24:21.523Z,19.70
2017-09-18T14:26:47.775Z,20.20
2017-09-18T14:29:13.934Z,20.20
2017-09-18T14:31:40.107Z,19.80
2017-09-18T14:34:06.317Z,19.60
2017-09-18T14:36:32.560Z,19.60
2017-09-18T14:38:58.758Z,19.70
2017-09-18T14:41:25.034Z,19.90
2017-09-18T14:43:52.235Z,20.10
2017-09-18T14:46:18.392Z,19.90
2017-09-18T14:48:44.622Z,19.70
2017-09-18T14:51:10.802Z,19.40
2017-09-18T14:53:36.954Z,19.20
2017-09-18T14:56:03.174Z,19.10
2017-09-18T14:58:29.392Z,19.10
2017-09-18T15:00:55.607Z,18.90
2017-09-18T15:03:21.766Z,18.70
2017-09-18T15:05:48.698Z,18.60
2017-09-18T15:08:14.874Z,18.60
2017-09-18T15:10:41.401Z,18.50
2017-09-18T15:13:08.319Z,18.20
2017-09-18T15:15:34.481Z,18.10
2017-09-18T15:18:00.656Z,18.00
2017-09-18T15:20:26.834Z,17.90
2017-09-18T15:22:53.003Z,17.80
2017-09-18T15:25:19.152Z,17.90
2017-09-18T15:27:45.315Z,17.80
2017-09-18T15:30:11.510Z,17.70
2017-09-18T15:32:37.734Z,17.60
2017-09-18T15:35:04.016Z,17.50
2017-09-18T15:37:30.952Z,17.50
2017-09-18T15:39:58.166Z,17.60
2017-09-18T15:42:24.382Z,17.70
2017-09-18T15:44:50.527Z,17.80
2017-09-18T15:47:17.523Z,17.70
2017-09-18T15:49:43.714Z,17.80
2017-09-18T15:52:09.870Z,17.70
2017-09-18T15:54:36.054Z,17.60
2017-09-18T15:57:02.300Z,17.50
2017-09-18T15:59:28.482Z,17.40
2017-09-18T16:01:55.387Z,17.30
2017-09-18T16:04:21.543Z,17.20
2017-09-18T16:06:47.736Z,17.20
2017-09-18T16:09:13.958Z,17.10
2017-09-18T16:11:40.147Z,17.00
2017-09-18T16:14:06.340Z,17.00
2017-09-18T16:16:32.495Z,17.00
2017-09-18T16:18:58.671Z,16.90
2017-09-18T16:21:24.966Z,16.70
2017-09-18T16:23:51.103Z,16.70
2017-09-18T16:26:17.301Z,16.60
2017-09-18T16:28:43.467Z,16.60
2017-09-18T16:31:09.673Z,16.40
2017-09-18T16:33:35.974Z,16.50
2017-09-18T16:36:02.133Z,16.30
2017-09-18T16:38:28.305Z,16.30
2017-09-18T16:40:54.516Z,16.20
2017-09-18T16:43:20.674Z,15.90
2017-09-18T16:45:48.022Z,15.60
2017-09-18T16:48:14.825Z,15.50
2017-09-18T16:50:41.019Z,15.70
2017-09-18T16:53:07.193Z,15.70
2017-09-18T16:55:33.758Z,15.60
2017-09-18T16:58:00.343Z,15.50
2017-09-18T17:00:26.555Z,15.30
2017-09-18T17:02:52.950Z,15.30
2017-09-18T17:05:19.204Z,15.30
2017-09-18T17:07:45.354Z,15.10
2017-09-18T17:10:11.546Z,15.10
2017-09-18T17:12:37.768Z,14.80
2017-09-18T17:15:04.082Z,14.70
2017-09-18T17:17:30.401Z,14.60
2017-09-18T17:19:57.246Z,14.70
2017-09-18T17:22:23.426Z,14.70
2017-09-18T17:24:50.118Z,14.80
2017-09-18T17:27:17.126Z,14.80
2017-09-18T17:29:43.315Z,14.70
2017-09-18T17:32:09.512Z,14.60
2017-09-18T17:34:35.703Z,14.50
2017-09-18T17:37:01.908Z,14.40
2017-09-18T17:39:28.097Z,14.50
2017-09-18T17:41:54.284Z,14.40
2017-09-18T17:44:20.435Z,14.50
2017-09-18T17:46:46.628Z,14.50
2017-09-18T17:49:12.802Z,14.50
2017-09-18T17:51:38.984Z,14.40
2017-09-18T17:54:05.535Z,14.40
2017-09-18T17:56:31.693Z,14.30
2017-09-18T17:58:57.909Z,14.30
2017-09-18T18:01:24.167Z,14.30
2017-09-18T18:03:50.360Z,14.20
2017-09-18T18:06:16.540Z,14.30
2017-09-18T18:08:42.749Z,14.30
2017-09-18T18:11:08.928Z,14.20
2017-09-18T18:13:35.098Z,14.10
2017-09-18T18:16:01.307Z,14.00
2017-09-18T18:18:28.309Z,13.90
2017-09-18T18:20:55.446Z,13.80
2017-09-18T18:23:21.617Z,13.80
2017-09-18T18:25:47.825Z,13.80
2017-09-18T18:28:14.051Z,13.70
2017-09-18T18:30:40.220Z,13.70
2017-09-18T18:33:08.160Z,13.60
2017-09-18T18:35:34.396Z,13.50
2017-09-18T18:38:01.514Z,13.50
2017-09-18T18:40:28.196Z,13.50
2017-09-18T18:42:54.541Z,13.40
2017-09-18T18:45:21.495Z,13.40
2017-09-18T18:47:47.670Z,13.40
2017-09-18T18:50:14.630Z,13.40
2017-09-18T18:52:40.789Z,13.40
2017-09-18T18:55:07.007Z,13.40
2017-09-18T18:57:33.266Z,13.50
2017-09-18T18:59:59.478Z,13.40
2017-09-18T19:02:26.069Z,13.50
2017-09-18T19:04:52.315Z,13.50
2017-09-18T19:07:25.676Z,13.50
2017-09-18T19:09:52.047Z,13.40
2017-09-18T19:12:18.821Z,13.40
2017-09-18T19:14:45.027Z,13.30
2017-09-18T19:17:11.256Z,13.30
2017-09-18T19:19:38.506Z,13.40
2017-09-18T19:22:05.459Z,13.40
2017-09-18T19:24:31.701Z,13.30
2017-09-18T19:26:57.920Z,13.40
2017-09-18T19:29:25.569Z,13.40
2017-09-18T19:31:52.729Z,13.30
2017-09-18T19:34:20.833Z,13.30
2017-09-18T19:36:49.007Z,13.30
2017-09-18T19:39:15.228Z,13.30
2017-09-18T19:41:41.618Z,13.20
2017-09-18T19:44:07.921Z,13.20
2017-09-18T19:46:34.187Z,13.20
2017-09-18T19:49:00.398Z,13.10
2017-09-18T19:51:26.698Z,13.10
2017-09-18T19:53:54.526Z,12.90
2017-09-18T19:56:20.720Z,12.90
2017-09-18T19:58:46.953Z,12.90
2017-09-18T20:01:15.808Z,12.90
2017-09-18T20:03:41.954Z,12.90
2017-09-18T20:06:10.232Z,12.90
2017-09-18T20:08:39.324Z,12.90
2017-09-18T20:11:07.386Z,12.90
2017-09-18T20:13:33.614Z,13.00
2017-09-18T20:16:00.163Z,13.00
2017-09-18T20:18:28.592Z,12.90
2017-09-18T20:20:55.016Z,12.80
2017-09-18T20:23:27.118Z,12.90
2017-09-18T20:25:54.888Z,12.90
2017-09-18T20:28:21.067Z,12.90
2017-09-18T20:30:47.662Z,12.90
2017-09-18T20:33:14.647Z,12.80
2017-09-18T20:35:40.827Z,12.70
2017-09-18T20:38:07.041Z,12.70
2017-09-18T20:40:33.551Z,12.80
2017-09-18T20:42:59.817Z,12.80
2017-09-18T20:45:27.015Z,12.70
2017-09-18T20:47:53.908Z,12.70
2017-09-18T20:50:20.134Z,12.60
2017-09-18T20:52:46.379Z,12.60
2017-09-18T20:55:12.648Z,12.50
2017-09-18T20:57:38.913Z,12.40
2017-09-18T21:00:05.099Z,12.40
2017-09-18T21:02:31.345Z,12.50
2017-09-18T21:04:57.547Z,12.50
2017-09-18T21:07:23.774Z,12.50
2017-09-18T21:09:49.928Z,12.40
2017-09-18T21:12:16.170Z,12.30
2017-09-18T21:14:44.030Z,12.30
2017-09-18T21:17:10.224Z,12.30
2017-09-18T21:19:36.414Z,12.30
2017-09-18T21:22:02.619Z,12.30
2017-09-18T21:24:28.839Z,12.30
2017-09-18T21:26:54.995Z,12.30
2017-09-18T21:29:21.189Z,12.30
2017-09-18T21:31:48.072Z,12.20
2017-09-18T21:34:14.221Z,12.10
2017-09-18T21:36:40.554Z,12.00
2017-09-18T21:39:06.862Z,11.90
2017-09-18T21:41:33.476Z,11.90
2017-09-18T21:43:59.655Z,11.70
2017-09-18T21:46:26.114Z,11.70
2017-09-18T21:48:52.691Z,11.60
2017-09-18T21:51:18.954Z,11.70
2017-09-18T21:53:45.142Z,11.60
2017-09-18T21:56:11.335Z,11.70
2017-09-18T21:58:37.524Z,11.70
2017-09-18T22:01:03.788Z,11.70
2017-09-18T22:03:30.014Z,11.70
2017-09-18T22:05:56.233Z,11.70
2017-09-18T22:08:22.807Z,11.60
2017-09-18T22:10:49.920Z,11.50
2017-09-18T22:13:16.219Z,11.50
2017-09-18T22:15:42.435Z,11.50
2017-09-18T22:18:08.644Z,11.60
2017-09-18T22:20:34.817Z,11.50
2017-09-18T22:23:00.984Z,11.40
2017-09-18T22:25:27.512Z,11.30
2017-09-18T22:27:53.698Z,11.40
2017-09-18T22:30:19.894Z,11.50
2017-09-18T22:32:47.734Z,11.50
2017-09-18T22:35:14.755Z,11.40
2017-09-18T22:37:42.551Z,11.30
2017-09-18T22:40:08.763Z,11.20
2017-09-18T22:42:34.955Z,11.30
2017-09-18T22:45:01.133Z,11.20
2017-09-18T22:47:28.257Z,11.20
2017-09-18T22:49:55.349Z,11.20
2017-09-18T22:52:23.262Z,11.30
2017-09-18T22:54:53.346Z,11.30
2017-09-18T22:57:19.534Z,11.20
2017-09-18T22:59:45.932Z,11.10
2017-09-18T23:02:12.185Z,11.10
2017-09-18T23:04:38.323Z,11.10
2017-09-18T23:07:04.554Z,11.10
2017-09-18T23:09:30.749Z,11.30
2017-09-18T23:11:56.962Z,11.20
2017-09-18T23:14:23.135Z,11.30
2017-09-18T23:16:49.353Z,11.40
2017-09-18T23:19:15.754Z,11.40
2017-09-18T23:21:41.964Z,11.30
2017-09-18T23:24:08.134Z,11.20
2017-09-18T23:26:34.678Z,11.20
2017-09-18T23:29:00.847Z,11.10
2017-09-18T23:31:27.032Z,11.10
2017-09-18T23:33:53.222Z,11.10
2017-09-18T23:36:19.403Z,11.10
2017-09-18T23:38:45.619Z,11.10
2017-09-18T23:41:11.829Z,11.20
2017-09-18T23:43:38.014Z,11.30
2017-09-18T23:46:04.173Z,11.30
2017-09-18T23:48:30.404Z,11.40
2017-09-18T23:50:56.598Z,11.40
2017-09-18T23:53:22.776Z,11.40
2017-09-18T23:55:48.947Z,11.40
2017-09-18T23:58:15.901Z,11.40
